Time;durP1;ratioP1;P1;durP2;ratioP2;P2;SDS_P1;SDS_P2;PMS_P1;PMS_P2;Temp;Humidity;BMP_temperature;BMP_pressure;BME280_temperature;BME280_humidity;BME280_pressure;Samples;Min_cycle;Max_cycle;Signal;HPM_P1;HPM_P2
2023/11/28 00:02:52;;;;;;;8.68;7.93;;;;;;;3.16;100.00;99952.22;10454779;28;20025;-70
2023/11/28 00:07:52;;;;;;;9.75;8.75;;;;;;;3.20;100.00;99964.25;10456371;28;20040;-70
2023/11/28 00:12:53;;;;;;;10.68;9.57;;;;;;;3.24;100.00;99976.28;10454380;28;20037;-70
2023/11/28 00:17:53;;;;;;;10.32;9.43;;;;;;;3.29;100.00;99973.06;10455987;28;20119;-70
2023/11/28 00:22:54;;;;;;;10.35;9.35;;;;;;;3.22;100.00;99981.81;10437864;28;20506;-70
2023/11/28 00:27:56;;;;;;;8.05;7.28;;;;;;;3.15;100.00;99966.59;10455094;28;20488;-70
2023/11/28 00:32:57;;;;;;;8.43;7.78;;;;;;;3.20;100.00;100001.72;10454772;28;20104;-70
2023/11/28 00:37:57;;;;;;;9.13;8.25;;;;;;;3.18;100.00;100017.09;10454697;28;20118;-70
2023/11/28 00:42:59;;;;;;;9.23;7.85;;;;;;;3.23;100.00;100038.81;10453629;28;20041;-70
2023/11/28 00:47:59;;;;;;;7.70;6.97;;;;;;;3.14;100.00;100055.91;10455257;28;20045;-70
2023/11/28 00:53:00;;;;;;;6.80;5.95;;;;;;;2.98;100.00;100052.22;10454296;28;20583;-70
2023/11/28 00:58:00;;;;;;;6.68;6.13;;;;;;;2.99;100.00;100058.41;10453653;28;20039;-70
2023/11/28 01:03:02;;;;;;;7.90;7.13;;;;;;;3.01;100.00;100073.28;10453056;28;20142;-70
2023/11/28 01:08:03;;;;;;;6.50;6.00;;;;;;;3.08;100.00;100083.31;10455535;28;20053;-70
2023/11/28 01:13:04;;;;;;;5.53;5.07;;;;;;;3.08;100.00;100088.66;10453662;28;20041;-70
2023/11/28 01:18:04;;;;;;;8.77;7.95;;;;;;;3.13;100.00;100107.75;10454637;28;20041;-70
2023/11/28 01:23:06;;;;;;;8.23;7.55;;;;;;;3.16;100.00;100105.56;10454155;28;20140;-70
2023/11/28 01:28:06;;;;;;;11.88;10.68;;;;;;;3.17;100.00;100123.28;10455120;28;20168;-70
2023/11/28 01:33:13;;;;;;;7.65;6.88;;;;;;;3.02;100.00;100133.78;10453895;28;20067;-70
2023/11/28 01:38:13;;;;;;;9.80;8.82;;;;;;;3.02;100.00;100144.50;10454020;28;20122;-70
2023/11/28 01:43:22;;;;;;;8.38;7.68;;;;;;;3.12;100.00;100156.88;10450762;28;20110;-70
2023/11/28 01:48:23;;;;;;;7.95;7.18;;;;;;;2.99;100.00;100168.91;10451981;28;20461;-70
2023/11/28 01:53:23;;;;;;;9.25;6.47;;;;;;;2.93;100.00;100174.91;10435494;28;20163;-70
2023/11/28 01:58:24;;;;;;;6.15;5.55;;;;;;;2.94;100.00;100181.13;10451785;28;20045;-72
2023/11/28 02:03:26;;;;;;;6.40;5.70;;;;;;;2.90;100.00;100196.63;10453717;28;20108;-70
2023/11/28 02:08:27;;;;;;;6.18;4.78;;;;;;;2.85;100.00;100211.53;10450713;28;20033;-70
2023/11/28 02:13:27;;;;;;;5.93;5.43;;;;;;;2.80;100.00;100214.66;10458622;28;20116;-70
2023/11/28 02:18:29;;;;;;;6.80;6.20;;;;;;;2.85;100.00;100228.41;10459076;28;20041;-70
2023/11/28 02:23:30;;;;;;;7.93;7.00;;;;;;;2.79;100.00;100243.25;10460183;28;20053;-70
2023/11/28 02:28:31;;;;;;;7.25;6.55;;;;;;;2.79;100.00;100255.78;10461236;28;20124;-70
2023/11/28 02:33:31;;;;;;;5.53;5.03;;;;;;;2.64;100.00;100266.25;10459057;28;20460;-70
2023/11/28 02:38:33;;;;;;;7.55;6.85;;;;;;;2.65;100.00;100278.66;10459717;28;20491;-70
2023/11/28 02:43:33;;;;;;;7.18;5.45;;;;;;;2.54;100.00;100295.78;10459511;28;20098;-69
2023/11/28 02:48:34;;;;;;;5.38;4.95;;;;;;;2.40;100.00;100282.22;10458981;28;20086;-70
2023/11/28 02:53:34;;;;;;;7.65;5.90;;;;;;;2.36;100.00;100296.88;10458971;28;20123;-71
2023/11/28 02:58:35;;;;;;;4.75;4.32;;;;;;;2.33;100.00;100303.38;10460469;28;20041;-71
2023/11/28 03:03:35;;;;;;;7.57;5.10;;;;;;;2.28;100.00;100324.38;10459533;28;20360;-71
2023/11/28 03:08:35;;;;;;;3.72;3.33;;;;;;;2.00;100.00;100337.06;10460145;28;20037;-71
2023/11/28 03:13:36;;;;;;;4.50;4.10;;;;;;;1.74;100.00;100334.34;10459834;28;20033;-71
2023/11/28 03:18:36;;;;;;;3.85;3.55;;;;;;;1.45;100.00;100343.44;10425085;28;20499;-71
2023/11/28 03:23:37;;;;;;;3.30;3.00;;;;;;;1.28;100.00;100344.28;10457502;28;20061;-71
2023/11/28 03:28:37;;;;;;;11.20;3.15;;;;;;;1.15;100.00;100353.47;10457775;28;20124;-71
2023/11/28 03:33:37;;;;;;;4.47;2.30;;;;;;;1.04;100.00;100348.34;10459375;28;20032;-71
2023/11/28 03:38:38;;;;;;;4.97;2.63;;;;;;;0.97;100.00;100357.94;10458928;28;20052;-71
2023/11/28 03:43:38;;;;;;;4.70;3.33;;;;;;;0.83;100.00;100358.41;10459761;28;20040;-71
2023/11/28 03:48:39;;;;;;;3.03;2.47;;;;;;;0.78;100.00;100364.19;10458331;28;20388;-71
2023/11/28 03:53:39;;;;;;;4.70;2.90;;;;;;;0.69;100.00;100365.91;10459137;28;20040;-71
2023/11/28 03:58:40;;;;;;;3.15;2.88;;;;;;;0.64;100.00;100386.00;10457958;28;20033;-70
2023/11/28 04:03:40;;;;;;;4.43;2.60;;;;;;;0.59;100.00;100383.75;10457757;28;20055;-71
2023/11/28 04:08:40;;;;;;;2.85;2.60;;;;;;;0.61;100.00;100400.47;10457389;28;20475;-70
2023/11/28 04:13:41;;;;;;;1.80;1.70;;;;;;;0.51;100.00;100404.97;10456060;28;20127;-71
2023/11/28 04:18:41;;;;;;;2.22;2.13;;;;;;;0.46;100.00;100415.22;10457859;28;20036;-71
2023/11/28 04:23:43;;;;;;;2.88;2.55;;;;;;;0.43;100.00;100426.16;10456710;28;20049;-71
2023/11/28 04:28:43;;;;;;;2.22;2.03;;;;;;;0.46;100.00;100425.88;10456597;28;20079;-71
2023/11/28 04:33:44;;;;;;;2.28;2.13;;;;;;;0.38;100.00;100431.06;10457274;28;20057;-71
2023/11/28 04:38:44;;;;;;;6.68;2.40;;;;;;;0.39;100.00;100438.09;10454877;28;20025;-71
2023/11/28 04:43:45;;;;;;;2.47;2.38;;;;;;;0.37;100.00;100456.03;10455424;28;20057;-71
2023/11/28 04:48:45;;;;;;;3.03;2.83;;;;;;;0.35;100.00;100469.50;10456418;28;20102;-71
2023/11/28 04:53:46;;;;;;;3.45;3.15;;;;;;;0.31;100.00;100483.22;10455939;28;20492;-70
2023/11/28 04:58:46;;;;;;;2.50;2.30;;;;;;;0.26;100.00;100490.81;10455257;28;20033;-71
2023/11/28 05:03:47;;;;;;;2.20;2.10;;;;;;;0.19;100.00;100490.50;10455611;28;20144;-70
2023/11/28 05:08:47;;;;;;;3.22;2.90;;;;;;;0.14;100.00;100493.59;10455794;28;20056;-71
2023/11/28 05:13:48;;;;;;;2.38;2.28;;;;;;;0.15;100.00;100499.78;10455206;28;20071;-71
2023/11/28 05:18:48;;;;;;;4.22;2.63;;;;;;;0.08;100.00;100512.81;10453391;28;20053;-71
2023/11/28 05:23:48;;;;;;;6.10;2.63;;;;;;;0.05;100.00;100536.19;10454821;28;20111;-71
2023/11/28 05:28:51;;;;;;;3.17;2.97;;;;;;;0.02;100.00;100534.66;10455703;28;20344;-71
2023/11/28 05:33:51;;;;;;;3.53;2.30;;;;;;;0.02;100.00;100541.81;10454754;28;20036;-71
2023/11/28 05:38:52;;;;;;;3.00;2.80;;;;;;;-0.04;100.00;100544.03;10455121;28;20032;-71
2023/11/28 05:43:52;;;;;;;3.85;3.20;;;;;;;-0.06;100.00;100550.50;10454079;28;20060;-71
2023/11/28 05:48:52;;;;;;;3.60;3.03;;;;;;;0.01;100.00;100553.44;10454381;28;20033;-71
2023/11/28 05:53:53;;;;;;;4.55;3.40;;;;;;;-0.08;100.00;100557.75;10454149;28;20401;-70
2023/11/28 05:58:53;;;;;;;4.63;2.45;;;;;;;-0.12;100.00;100567.84;10454486;28;20025;-70
2023/11/28 06:03:54;;;;;;;3.40;2.38;;;;;;;-0.13;100.00;100558.16;10454468;28;20029;-70
2023/11/28 06:08:54;;;;;;;3.08;2.67;;;;;;;-0.08;100.00;100560.41;10452994;28;20021;-70
2023/11/28 06:13:54;;;;;;;11.68;3.08;;;;;;;-0.18;100.00;100564.88;10455496;28;20033;-71
2023/11/28 06:18:55;;;;;;;2.30;2.10;;;;;;;-0.24;100.00;100572.41;10453386;28;20423;-71
2023/11/28 06:23:55;;;;;;;4.70;2.67;;;;;;;-0.39;100.00;100588.91;10452844;28;20110;-70
2023/11/28 06:28:55;;;;;;;4.90;3.42;;;;;;;-0.41;100.00;100596.19;10453100;28;20046;-70
2023/11/28 06:33:56;;;;;;;3.08;2.75;;;;;;;-0.40;100.00;100605.84;10453490;28;20064;-71
2023/11/28 06:38:56;;;;;;;1.98;1.88;;;;;;;-0.50;100.00;100616.44;10453019;28;20029;-71
2023/11/28 06:43:57;;;;;;;5.85;3.03;;;;;;;-0.68;100.00;100626.84;10453724;28;20052;-71
2023/11/28 06:48:57;;;;;;;4.10;3.08;;;;;;;-0.74;100.00;100635.34;10454238;28;20087;-71
2023/11/28 06:53:58;;;;;;;2.75;2.55;;;;;;;-0.71;100.00;100635.06;10451516;28;20038;-71
2023/11/28 06:58:59;;;;;;;3.50;3.22;;;;;;;-0.66;100.00;100654.16;10457740;28;20032;-71
2023/11/28 07:03:59;;;;;;;3.40;2.92;;;;;;;-0.65;100.00;100662.97;10459700;28;20411;-71
2023/11/28 07:09:00;;;;;;;2.33;2.22;;;;;;;-0.65;100.00;100671.78;10459606;28;20037;-70
2023/11/28 07:14:01;;;;;;;2.80;2.60;;;;;;;-0.64;100.00;100677.94;10460207;28;20064;-70
2023/11/28 07:19:01;;;;;;;3.75;3.13;;;;;;;-0.61;100.00;100673.19;10459702;28;20029;-71
2023/11/28 07:24:02;;;;;;;3.08;2.63;;;;;;;-0.64;100.00;100677.94;10459244;28;20059;-71
2023/11/28 07:29:02;;;;;;;4.95;3.92;;;;;;;-0.63;100.00;100680.47;10459378;28;20115;-71
2023/11/28 07:34:04;;;;;;;7.82;3.63;;;;;;;-0.44;100.00;100692.22;10459991;28;20039;-71
2023/11/28 07:39:04;;;;;;;4.32;3.88;;;;;;;-0.39;100.00;100692.66;10458078;28;20029;-71
2023/11/28 07:44:04;;;;;;;6.30;3.63;;;;;;;-0.36;100.00;100698.53;10459579;28;20025;-73
2023/11/28 07:49:05;;;;;;;3.50;3.28;;;;;;;-0.33;100.00;100708.09;10457595;28;20036;-71
2023/11/28 07:54:06;;;;;;;4.15;3.20;;;;;;;-0.33;100.00;100716.91;10456079;28;20476;-71
2023/11/28 07:59:06;;;;;;;3.60;3.28;;;;;;;0.08;100.00;100720.47;10457799;28;20107;-71
2023/11/28 08:04:07;;;;;;;4.28;3.90;;;;;;;0.75;100.00;100718.13;10456541;28;20025;-71
2023/11/28 08:09:08;;;;;;;5.20;4.35;;;;;;;1.28;100.00;100731.06;10456442;28;20415;-71
2023/11/28 08:14:08;;;;;;;10.57;5.85;;;;;;;1.73;100.00;100723.25;10440909;28;20360;-71
2023/11/28 08:19:09;;;;;;;12.32;6.32;;;;;;;2.18;100.00;100719.84;10457697;28;20032;-71
2023/11/28 08:24:09;;;;;;;4.75;4.25;;;;;;;2.65;100.00;100733.09;10457016;28;20045;-71
2023/11/28 08:29:10;;;;;;;8.18;4.72;;;;;;;3.11;100.00;100733.91;10457896;28;20422;-71
2023/11/28 08:34:10;;;;;;;4.22;3.92;;;;;;;3.77;100.00;100751.31;10457277;28;20032;-71
2023/11/28 08:39:14;;;;;;;5.43;4.15;;;;;;;4.42;100.00;100753.53;10457321;28;20037;-71
2023/11/28 08:44:15;;;;;;;5.38;3.85;;;;;;;4.93;100.00;100769.63;10457134;28;20121;-71
2023/11/28 08:49:16;;;;;;;6.18;3.20;;;;;;;5.27;100.00;100775.72;10456992;28;20037;-71
2023/11/28 08:54:16;;;;;;;4.35;3.63;;;;;;;5.69;100.00;100790.84;10456933;28;20028;-71
2023/11/28 08:59:17;;;;;;;4.90;3.20;;;;;;;6.09;100.00;100791.84;10457443;28;20091;-71
2023/11/28 09:04:17;;;;;;;3.50;3.22;;;;;;;6.43;100.00;100796.13;10454240;28;20032;-71
2023/11/28 09:09:17;;;;;;;3.47;3.17;;;;;;;6.62;100.00;100803.78;10456417;28;20095;-71
2023/11/28 09:14:18;;;;;;;4.28;3.65;;;;;;;6.87;100.00;100796.47;10455429;28;20372;-71
2023/11/28 09:19:18;;;;;;;3.50;3.28;;;;;;;7.10;100.00;100795.66;10454856;28;20174;-71
2023/11/28 09:24:19;;;;;;;2.55;2.45;;;;;;;7.40;100.00;100792.09;10453241;28;20068;-71
2023/11/28 09:29:22;;;;;;;3.20;2.75;;;;;;;7.73;100.00;100799.94;10454447;28;20131;-71
2023/11/28 09:34:22;;;;;;;3.33;3.03;;;;;;;7.85;100.00;100813.81;10454623;28;20488;-71
2023/11/28 09:39:23;;;;;;;2.65;2.45;;;;;;;8.03;100.00;100824.25;10454011;28;20025;-71
2023/11/28 09:44:26;;;;;;;9.13;2.40;;;;;;;8.26;100.00;100818.81;10454382;28;20025;-71
2023/11/28 09:49:26;;;;;;;2.70;2.50;;;;;;;8.46;100.00;100822.69;10438080;28;20025;-71
2023/11/28 09:54:27;;;;;;;4.72;3.08;;;;;;;8.65;100.00;100817.72;10452982;28;20079;-71
2023/11/28 09:59:29;;;;;;;16.75;3.35;;;;;;;8.73;100.00;100828.44;10454123;28;20044;-71
2023/11/28 10:04:29;;;;;;;3.30;2.47;;;;;;;7.33;100.00;100833.38;10452642;28;20336;-71
2023/11/28 10:09:30;;;;;;;3.80;2.38;;;;;;;6.79;100.00;100831.47;10453836;28;20044;-71
2023/11/28 10:14:31;;;;;;;4.28;3.10;;;;;;;6.69;100.00;100829.00;10454151;28;20119;-71
2023/11/28 10:19:32;;;;;;;2.28;2.08;;;;;;;5.80;100.00;100833.50;10453403;28;20052;-71
2023/11/28 10:24:33;;;;;;;3.95;2.90;;;;;;;6.19;100.00;100854.34;10453144;28;20049;-71
2023/11/28 10:29:33;;;;;;;6.60;3.92;;;;;;;7.41;100.00;100849.50;10451949;28;20032;-71
2023/11/28 10:34:36;;;;;;;6.80;2.75;;;;;;;8.25;100.00;100836.03;10460361;28;20065;-71
2023/11/28 10:39:37;;;;;;;5.07;3.30;;;;;;;8.77;100.00;100837.84;10462504;28;20082;-71
2023/11/28 10:44:37;;;;;;;5.65;2.92;;;;;;;8.75;100.00;100829.09;10461487;28;20070;-72
2023/11/28 10:49:38;;;;;;;3.17;2.72;;;;;;;8.02;100.00;100819.91;10460714;28;20044;-71
2023/11/28 10:54:39;;;;;;;2.80;2.60;;;;;;;6.84;100.00;100809.44;10461129;28;20025;-71
2023/11/28 10:59:39;;;;;;;3.38;3.08;;;;;;;5.99;100.00;100815.38;10459509;28;20029;-71
2023/11/28 11:04:40;;;;;;;7.95;3.53;;;;;;;5.57;100.00;100819.88;10459680;28;20048;-71
2023/11/28 11:09:40;;;;;;;4.43;3.90;;;;;;;5.66;100.00;100823.44;10459801;28;20064;-71
2023/11/28 11:14:57;;;;;;;4.90;3.05;;;;;;;6.12;100.00;100837.19;10458864;28;20029;-72
2023/11/28 11:19:58;;;;;;;3.17;2.88;;;;;;;6.75;100.00;100828.28;10460525;28;20403;-71
2023/11/28 11:24:59;;;;;;;2.83;2.63;;;;;;;7.36;100.00;100824.94;10458729;28;20056;-71
2023/11/28 11:30:04;;;;;;;7.35;2.92;;;;;;;7.81;100.00;100809.78;10458578;28;20060;-71
2023/11/28 11:35:05;;;;;;;2.78;2.42;;;;;;;8.12;100.00;100802.41;10458475;28;20028;-71
2023/11/28 11:40:07;;;;;;;3.17;2.45;;;;;;;8.26;100.00;100808.84;10441917;28;20028;-71
2023/11/28 11:45:08;;;;;;;2.20;2.00;;;;;;;8.30;100.00;100807.47;10458133;28;20032;-71
2023/11/28 11:50:09;;;;;;;1.98;1.88;;;;;;;8.33;100.00;100804.41;10458741;28;20458;-71
2023/11/28 11:55:12;;;;;;;3.20;2.65;;;;;;;7.51;100.00;100811.56;10458662;28;20481;-72
2023/11/28 12:00:13;;;;;;;4.22;2.22;;;;;;;7.87;100.00;100807.19;10459221;28;20059;-71
2023/11/28 12:05:13;;;;;;;3.13;2.28;;;;;;;7.50;100.00;100810.72;10458123;28;20152;-71
2023/11/28 12:10:14;;;;;;;2.63;2.42;;;;;;;6.50;100.00;100813.25;10458663;28;20065;-71
2023/11/28 12:15:17;;;;;;;2.67;2.47;;;;;;;6.03;100.00;100803.25;10456392;28;20040;-71
2023/11/28 12:20:17;;;;;;;2.70;2.50;;;;;;;6.21;100.00;100808.47;10456062;28;20029;-71
2023/11/28 12:25:20;;;;;;;2.80;2.45;;;;;;;6.75;100.00;100808.63;10456121;28;20057;-71
2023/11/28 12:30:21;;;;;;;3.63;2.58;;;;;;;7.29;100.00;100805.97;10456002;28;20090;-71
2023/11/28 12:35:21;;;;;;;5.25;3.22;;;;;;;7.64;100.00;100814.50;10438744;28;20021;-71
2023/11/28 12:40:22;;;;;;;2.55;2.05;;;;;;;7.79;100.00;100812.69;10456946;28;20037;-71
2023/11/28 12:45:24;;;;;;;6.80;2.67;;;;;;;7.75;100.00;100815.91;10456605;28;20044;-71
2023/11/28 12:50:26;;;;;;;6.25;2.25;;;;;;;7.41;100.00;100820.72;10456971;28;20024;-72
2023/11/28 12:55:29;;;;;;;2.30;1.88;;;;;;;7.03;100.00;100827.00;10456224;28;20032;-71
2023/11/28 13:00:29;;;;;;;3.63;1.88;;;;;;;6.79;100.00;100825.25;10454542;28;20028;-71
2023/11/28 13:05:30;;;;;;;4.68;2.25;;;;;;;6.38;100.00;100822.69;10455519;28;20033;-71
2023/11/28 13:10:32;;;;;;;2.55;1.98;;;;;;;5.95;100.00;100814.88;10455794;28;20040;-71
2023/11/28 13:15:34;;;;;;;3.08;2.80;;;;;;;5.63;100.00;100804.94;10456146;28;20112;-71
2023/11/28 13:20:34;;;;;;;4.05;2.60;;;;;;;5.55;100.00;100811.16;10454176;28;20041;-71
2023/11/28 13:25:34;;;;;;;3.72;2.67;;;;;;;5.57;100.00;100809.13;10453356;28;20077;-71
2023/11/28 13:30:37;;;;;;;4.40;3.25;;;;;;;5.42;100.00;100812.66;10455705;28;20051;-71
2023/11/28 13:35:39;;;;;;;2.85;2.42;;;;;;;5.36;100.00;100816.88;10454866;28;20036;-71
2023/11/28 13:40:42;;;;;;;3.58;2.25;;;;;;;5.33;100.00;100812.66;10455660;28;20036;-71
2023/11/28 13:45:42;;;;;;;3.45;3.22;;;;;;;5.18;100.00;100800.88;10453386;28;20048;-71
2023/11/28 13:50:42;;;;;;;7.55;3.38;;;;;;;5.19;100.00;100807.91;10454840;28;20044;-71
2023/11/28 13:55:44;;;;;;;3.65;2.80;;;;;;;5.15;100.00;100814.63;10455174;28;20037;-72
2023/11/28 14:00:44;;;;;;;3.75;3.45;;;;;;;4.86;100.00;100801.63;10453835;28;20051;-71
2023/11/28 14:05:45;;;;;;;3.47;3.20;;;;;;;4.59;100.00;100791.97;10454534;28;20035;-71
2023/11/28 14:10:45;;;;;;;6.57;3.55;;;;;;;4.64;100.00;100801.22;10462846;28;20464;-71
2023/11/28 14:15:46;;;;;;;3.08;2.70;;;;;;;4.69;100.00;100814.16;10461647;28;20025;-72
2023/11/28 14:20:47;;;;;;;4.22;2.78;;;;;;;4.48;100.00;100816.41;10462687;28;20037;-72
2023/11/28 14:25:47;;;;;;;3.15;2.08;;;;;;;4.50;100.00;100819.75;10460990;28;20154;-72
2023/11/28 14:30:48;;;;;;;7.90;2.45;;;;;;;4.82;100.00;100819.06;10461857;28;20091;-71
2023/11/28 14:35:48;;;;;;;6.70;3.78;;;;;;;5.09;100.00;100817.97;10462440;28;20088;-71
2023/11/28 14:40:49;;;;;;;6.88;2.53;;;;;;;5.31;100.00;100811.13;10460254;28;20144;-72
2023/11/28 14:45:49;;;;;;;2.17;2.08;;;;;;;5.11;100.00;100810.59;10462011;28;20320;-72
2023/11/28 14:50:50;;;;;;;2.50;2.10;;;;;;;4.83;100.00;100805.47;10461391;28;20083;-72
2023/11/28 14:55:52;;;;;;;2.35;1.92;;;;;;;4.37;100.00;100802.28;10460244;28;20467;-72
2023/11/28 15:00:53;;;;;;;3.92;3.53;;;;;;;3.92;100.00;100792.63;10461150;28;20052;-71
2023/11/28 15:05:53;;;;;;;3.10;2.70;;;;;;;3.66;100.00;100799.78;10460774;28;20040;-71
2023/11/28 15:10:53;;;;;;;4.72;2.92;;;;;;;3.38;100.00;100783.81;10461813;28;20036;-71
2023/11/28 15:15:54;;;;;;;3.13;2.92;;;;;;;3.21;100.00;100790.00;10460898;28;20033;-72
2023/11/28 15:20:54;;;;;;;3.60;2.47;;;;;;;3.10;100.00;100776.88;10457739;28;20079;-72
2023/11/28 15:25:55;;;;;;;7.20;3.50;;;;;;;3.01;100.00;100774.09;10459502;28;20388;-71
2023/11/28 15:30:55;;;;;;;3.67;2.63;;;;;;;2.87;100.00;100769.28;10459419;28;20120;-71
2023/11/28 15:35:56;;;;;;;7.57;2.58;;;;;;;2.77;100.00;100773.81;10460122;28;20029;-71
2023/11/28 15:40:56;;;;;;;3.92;2.67;;;;;;;2.72;100.00;100774.28;10459931;28;20044;-71
2023/11/28 15:45:57;;;;;;;2.78;2.35;;;;;;;2.70;100.00;100772.75;10458834;28;20091;-71
2023/11/28 15:50:57;;;;;;;4.28;2.85;;;;;;;2.64;100.00;100776.84;10458677;28;20037;-72
2023/11/28 15:55:58;;;;;;;10.70;3.22;;;;;;;2.65;100.00;100783.91;10457942;28;20037;-71
2023/11/28 16:00:58;;;;;;;6.95;2.72;;;;;;;2.79;100.00;100778.03;10459142;28;20052;-71
2023/11/28 16:06:01;;;;;;;6.03;2.80;;;;;;;2.85;100.00;100773.94;10459595;28;20064;-71
2023/11/28 16:11:01;;;;;;;2.75;2.50;;;;;;;2.87;100.00;100768.41;10458221;28;20395;-71
2023/11/28 16:16:02;;;;;;;2.90;2.70;;;;;;;2.83;100.00;100757.19;10457786;28;20033;-71
2023/11/28 16:21:02;;;;;;;2.38;2.15;;;;;;;3.12;100.00;100754.28;10458468;28;20168;-71
2023/11/28 16:26:03;;;;;;;2.88;2.60;;;;;;;3.31;100.00;100739.09;10457192;28;20056;-71
2023/11/28 16:31:04;;;;;;;2.97;2.75;;;;;;;3.27;100.00;100743.91;10457461;28;20132;-72
2023/11/28 16:36:09;;;;;;;2.47;2.30;;;;;;;3.12;100.00;100721.34;10457539;28;20429;-71
2023/11/28 16:41:09;;;;;;;4.25;3.25;;;;;;;3.01;100.00;100739.31;10439220;28;20037;-71
2023/11/28 16:46:10;;;;;;;3.35;2.45;;;;;;;3.02;100.00;100749.03;10457116;28;20079;-71
2023/11/28 16:51:13;;;;;;;9.05;3.50;;;;;;;2.99;100.00;100738.63;10455277;28;20037;-71
2023/11/28 16:56:14;;;;;;;2.15;2.05;;;;;;;2.90;100.00;100738.69;10457950;28;20036;-71
2023/11/28 17:01:14;;;;;;;6.57;2.97;;;;;;;2.93;100.00;100727.69;10455390;28;20059;-71
2023/11/28 17:06:15;;;;;;;2.92;2.70;;;;;;;3.02;100.00;100724.94;10456879;28;20065;-72
2023/11/28 17:11:16;;;;;;;3.25;2.92;;;;;;;2.98;100.00;100720.91;10454781;28;20078;-72
2023/11/28 17:16:17;;;;;;;2.40;2.25;;;;;;;2.93;100.00;100717.81;10456983;28;20029;-73
2023/11/28 17:21:17;;;;;;;2.30;2.20;;;;;;;2.84;100.00;100724.13;10457003;28;20037;-71
2023/11/28 17:26:19;;;;;;;2.47;2.30;;;;;;;2.85;100.00;100720.44;10454745;28;20064;-72
2023/11/28 17:31:20;;;;;;;1.58;1.48;;;;;;;2.77;100.00;100706.97;10454486;28;20451;-71
2023/11/28 17:36:20;;;;;;;2.47;2.15;;;;;;;2.72;100.00;100707.44;10438603;28;20033;-71
2023/11/28 17:41:21;;;;;;;1.63;1.48;;;;;;;2.66;100.00;100699.19;10455450;28;20040;-71
2023/11/28 17:46:21;;;;;;;2.95;1.50;;;;;;;2.53;100.00;100703.06;10455650;28;20460;-71
2023/11/28 17:51:22;;;;;;;1.00;1.00;;;;;;;2.46;100.00;100693.13;10455835;28;20184;-71
2023/11/28 17:56:22;;;;;;;1.15;1.15;;;;;;;2.43;100.00;100680.91;10437223;28;20148;-70
2023/11/28 18:01:24;;;;;;;1.27;1.27;;;;;;;2.44;100.00;100669.22;10455761;28;20029;-71
2023/11/28 18:06:25;;;;;;;2.28;1.80;;;;;;;2.39;100.00;100667.97;10454702;28;20116;-71
2023/11/28 18:11:25;;;;;;;4.25;3.33;;;;;;;2.39;100.00;100646.59;10455720;28;20313;-70
2023/11/28 18:16:26;;;;;;;2.50;2.35;;;;;;;2.26;100.00;100654.97;10454016;28;20115;-70
2023/11/28 18:21:26;;;;;;;3.33;3.00;;;;;;;2.07;100.00;100640.75;10454594;28;20059;-70
2023/11/28 18:26:27;;;;;;;3.78;3.47;;;;;;;2.08;100.00;100637.09;10453745;28;20079;-70
2023/11/28 18:31:27;;;;;;;2.38;2.28;;;;;;;2.06;100.00;100628.38;10455071;28;20033;-71
2023/11/28 18:36:28;;;;;;;3.20;3.00;;;;;;;2.05;100.00;100618.69;10453434;28;20037;-70
2023/11/28 18:41:32;;;;;;;3.22;2.78;;;;;;;2.02;100.00;100616.31;10454388;28;20036;-71
2023/11/28 18:46:33;;;;;;;4.38;3.45;;;;;;;2.10;100.00;100607.53;10453842;28;20040;-71
2023/11/28 18:51:33;;;;;;;3.05;2.85;;;;;;;2.19;100.00;100611.16;10436670;28;20029;-71
2023/11/28 18:56:34;;;;;;;5.55;2.50;;;;;;;2.26;100.00;100605.03;10461226;28;20091;-71
2023/11/28 19:01:35;;;;;;;2.08;1.92;;;;;;;2.55;100.00;100609.34;10459885;28;20017;-71
2023/11/28 19:06:37;;;;;;;1.58;1.58;;;;;;;2.72;100.00;100595.16;10459657;28;20029;-70
2023/11/28 19:11:37;;;;;;;3.92;3.55;;;;;;;2.94;100.00;100593.00;10458943;28;20083;-71
2023/11/28 19:16:38;;;;;;;6.85;4.28;;;;;;;3.11;100.00;100591.25;10460193;28;20090;-72
2023/11/28 19:21:43;;;;;;;3.13;2.33;;;;;;;3.22;100.00;100609.72;10460737;28;20069;-71
2023/11/28 19:26:44;;;;;;;3.63;2.40;;;;;;;3.37;100.00;100592.09;10460024;28;20083;-72
2023/11/28 19:31:44;;;;;;;15.73;3.65;;;;;;;3.43;100.00;100574.56;10459939;28;20029;-71
2023/11/28 19:36:45;;;;;;;2.85;2.65;;;;;;;3.29;100.00;100562.63;10460417;28;20044;-71
2023/11/28 19:41:45;;;;;;;3.28;3.08;;;;;;;3.24;100.00;100571.09;10458873;28;20108;-71
2023/11/28 19:46:46;;;;;;;4.28;3.88;;;;;;;3.12;100.00;100568.84;10441493;28;20132;-72
2023/11/28 19:51:46;;;;;;;5.93;5.10;;;;;;;2.93;100.00;100557.34;10459666;28;20108;-71
2023/11/28 19:56:47;;;;;;;5.82;5.10;;;;;;;2.73;100.00;100561.22;10459292;28;20382;-72
2023/11/28 20:01:47;;;;;;;5.22;4.22;;;;;;;2.80;100.00;100565.78;10458291;28;20465;-72
2023/11/28 20:06:47;;;;;;;4.90;4.55;;;;;;;2.77;100.00;100554.56;10458659;28;20052;-72
2023/11/28 20:11:48;;;;;;;7.22;4.95;;;;;;;2.65;100.00;100529.06;10459045;28;20119;-72
2023/11/28 20:16:50;;;;;;;5.45;5.00;;;;;;;2.68;100.00;100531.44;10459251;28;20064;-72
2023/11/28 20:21:51;;;;;;;7.97;5.97;;;;;;;2.67;100.00;100513.72;10458130;28;20047;-72
2023/11/28 20:26:53;;;;;;;8.50;5.53;;;;;;;2.82;100.00;100514.00;10457335;28;20049;-72
2023/11/28 20:31:53;;;;;;;5.85;5.10;;;;;;;2.75;100.00;100503.09;10457758;28;20044;-72
2023/11/28 20:36:53;;;;;;;6.20;5.60;;;;;;;2.74;100.00;100512.09;10458141;28;20376;-72
2023/11/28 20:41:54;;;;;;;7.07;5.97;;;;;;;2.75;100.00;100505.78;10456424;28;20048;-72
2023/11/28 20:46:54;;;;;;;5.78;5.28;;;;;;;2.73;100.00;100491.72;10457291;28;20025;-72
2023/11/28 20:51:55;;;;;;;7.00;5.22;;;;;;;2.76;100.00;100494.91;10458229;28;20040;-72
2023/11/28 20:56:55;;;;;;;10.88;5.88;;;;;;;3.04;100.00;100486.72;10458157;28;20163;-72
2023/11/28 21:01:56;;;;;;;5.47;4.75;;;;;;;3.04;100.00;100484.06;10456981;28;20040;-71
2023/11/28 21:06:57;;;;;;;6.93;5.30;;;;;;;3.21;100.00;100477.78;10456748;28;20372;-71
2023/11/28 21:11:57;;;;;;;11.25;5.75;;;;;;;3.32;100.00;100471.31;10456909;28;20033;-72
2023/11/28 21:16:59;;;;;;;6.65;5.95;;;;;;;3.43;100.00;100468.34;10454870;28;20032;-72
2023/11/28 21:21:59;;;;;;;10.32;5.25;;;;;;;3.58;100.00;100459.69;10457825;28;20038;-72
2023/11/28 21:27:00;;;;;;;6.38;4.30;;;;;;;3.68;100.00;100450.50;10454140;28;20049;-72
2023/11/28 21:32:01;;;;;;;7.75;6.22;;;;;;;3.58;100.00;100438.28;10455175;28;20083;-73
2023/11/28 21:37:01;;;;;;;14.45;4.63;;;;;;;3.42;100.00;100445.25;10454471;28;20037;-73
2023/11/28 21:42:01;;;;;;;6.72;3.25;;;;;;;3.62;100.00;100466.41;10455674;28;20048;-73
2023/11/28 21:47:06;;;;;;;4.32;3.13;;;;;;;3.86;100.00;100445.03;10456249;28;20116;-73
2023/11/28 21:52:06;;;;;;;9.25;3.63;;;;;;;3.93;100.00;100438.00;10438317;28;20025;-73
2023/11/28 21:57:06;;;;;;;13.48;3.40;;;;;;;4.00;100.00;100446.22;10454965;28;20100;-73
2023/11/28 22:02:07;;;;;;;6.82;3.03;;;;;;;4.00;100.00;100440.84;10455281;28;20364;-74
2023/11/28 22:07:08;;;;;;;6.35;2.42;;;;;;;3.99;100.00;100439.19;10454456;28;20376;-73
2023/11/28 22:12:08;;;;;;;2.80;2.40;;;;;;;3.94;100.00;100428.13;10455451;28;20040;-72
2023/11/28 22:17:09;;;;;;;9.88;3.47;;;;;;;3.99;100.00;100416.88;10455456;28;20037;-73
2023/11/28 22:22:10;;;;;;;10.48;3.10;;;;;;;4.02;100.00;100435.31;10437009;28;20033;-73
2023/11/28 22:27:10;;;;;;;4.47;2.40;;;;;;;3.92;100.00;100436.34;10455191;28;20061;-73
2023/11/28 22:32:10;;;;;;;1.88;1.58;;;;;;;3.77;100.00;100432.63;10462725;28;20116;-73
2023/11/28 22:37:11;;;;;;;11.77;2.60;;;;;;;3.71;100.00;100441.31;10462808;28;20033;-74
2023/11/28 22:42:11;;;;;;;1.70;1.60;;;;;;;3.51;100.00;100438.09;10461719;28;20445;-73
2023/11/28 22:47:12;;;;;;;1.58;1.52;;;;;;;3.31;100.00;100400.03;10463106;28;20052;-73
2023/11/28 22:52:12;;;;;;;3.50;1.60;;;;;;;3.25;100.00;100414.06;10462955;28;20036;-73
2023/11/28 22:57:13;;;;;;;3.90;2.38;;;;;;;3.26;100.00;100402.38;10460459;28;20029;-74
2023/11/28 23:02:15;;;;;;;1.60;1.50;;;;;;;3.29;100.00;100377.97;10460709;28;20021;-74